createdAt,value
2019-04-26T00:00:09.161Z,970.89
2019-04-26T00:01:09.017Z,970.89
2019-04-26T00:02:08.992Z,970.90
2019-04-26T00:03:08.879Z,970.90
2019-04-26T00:04:08.855Z,970.86
2019-04-26T00:05:07.814Z,970.88
2019-04-26T00:06:08.893Z,970.90
2019-04-26T00:07:08.133Z,970.86
2019-04-26T00:08:07.563Z,970.84
2019-04-26T00:09:07.488Z,970.87
2019-04-26T00:10:07.409Z,970.85
2019-04-26T00:11:07.330Z,970.88
2019-04-26T00:12:07.253Z,970.89
2019-04-26T00:13:07.190Z,970.90
2019-04-26T00:14:28.094Z,970.86
2019-04-26T00:15:07.034Z,970.87
2019-04-26T00:16:06.957Z,970.83
2019-04-26T00:17:06.878Z,970.83
2019-04-26T00:18:06.814Z,970.84
2019-04-26T00:19:06.725Z,970.81
2019-04-26T00:20:06.649Z,970.79
2019-04-26T00:21:06.568Z,970.77
2019-04-26T00:22:06.492Z,970.76
2019-04-26T00:23:06.438Z,970.75
2019-04-26T00:24:06.340Z,970.77
2019-04-26T00:25:06.279Z,970.78
2019-04-26T00:26:06.183Z,970.83
2019-04-26T00:27:06.111Z,970.83
2019-04-26T00:28:06.032Z,970.82
2019-04-26T00:29:05.953Z,970.85
2019-04-26T00:30:05.875Z,970.85
2019-04-26T00:31:05.805Z,970.85
2019-04-26T00:32:05.720Z,970.84
2019-04-26T00:33:05.646Z,970.88
2019-04-26T00:34:05.566Z,970.92
2019-04-26T00:35:05.495Z,970.94
2019-04-26T00:36:05.411Z,970.95
2019-04-26T00:37:05.333Z,970.94
2019-04-26T00:38:05.256Z,970.95
2019-04-26T00:39:05.177Z,970.97
2019-04-26T00:40:05.105Z,971.01
2019-04-26T00:41:05.025Z,971.04
2019-04-26T00:42:04.991Z,971.01
2019-04-26T00:43:04.868Z,970.96
2019-04-26T00:44:04.793Z,970.97
2019-04-26T00:45:04.717Z,970.98
2019-04-26T00:46:04.634Z,970.95
2019-04-26T00:47:04.560Z,970.96
2019-04-26T00:48:04.482Z,970.96
2019-04-26T00:49:04.401Z,970.98
2019-04-26T00:50:04.328Z,970.96
2019-04-26T00:51:04.247Z,970.97
2019-04-26T00:52:04.171Z,970.93
2019-04-26T00:53:04.096Z,970.96
2019-04-26T00:54:04.019Z,970.96
2019-04-26T00:55:03.930Z,970.93
2019-04-26T00:56:03.861Z,970.91
2019-04-26T00:57:03.771Z,970.91
2019-04-26T00:58:03.705Z,970.94
2019-04-26T00:59:03.626Z,970.93
2019-04-26T01:00:03.552Z,970.98
2019-04-26T01:01:03.473Z,971.01
2019-04-26T01:02:03.397Z,971.06
2019-04-26T01:03:03.317Z,971.07
2019-04-26T01:04:03.232Z,971.09
2019-04-26T01:05:03.153Z,971.09
2019-04-26T01:06:03.072Z,971.12
2019-04-26T01:07:02.995Z,971.15
2019-04-26T01:08:02.917Z,971.14
2019-04-26T01:09:02.867Z,971.17
2019-04-26T01:10:02.756Z,971.16
2019-04-26T01:11:02.684Z,971.15
2019-04-26T01:12:02.604Z,971.11
2019-04-26T01:13:02.526Z,971.16
2019-04-26T01:14:02.448Z,971.17
2019-04-26T01:15:02.366Z,971.21
2019-04-26T01:16:02.299Z,971.26
2019-04-26T01:17:02.216Z,971.21
2019-04-26T01:18:02.136Z,971.19
2019-04-26T01:19:02.055Z,971.19
2019-04-26T01:20:01.979Z,971.21
2019-04-26T01:21:01.902Z,971.18
2019-04-26T01:22:01.822Z,971.18
2019-04-26T01:23:01.800Z,971.16
2019-04-26T01:24:01.666Z,971.21
2019-04-26T01:25:01.590Z,971.22
2019-04-26T01:26:01.515Z,971.21
2019-04-26T01:27:01.435Z,971.20
2019-04-26T01:28:01.355Z,971.21
2019-04-26T01:29:01.278Z,971.23
2019-04-26T01:30:01.194Z,971.20
2019-04-26T01:31:01.119Z,971.24
2019-04-26T01:32:01.040Z,971.27
2019-04-26T01:33:00.958Z,971.25
2019-04-26T01:35:43.954Z,971.24
2019-04-26T01:36:43.862Z,971.21
2019-04-26T01:38:37.107Z,971.15
2019-04-26T01:39:37.025Z,971.12
2019-04-26T01:41:41.316Z,971.09
2019-04-26T01:42:41.238Z,971.12
2019-04-26T01:44:45.537Z,971.08
2019-04-26T01:45:45.448Z,971.13
2019-04-26T01:47:49.739Z,971.09
2019-04-26T01:48:49.657Z,971.04
2019-04-26T01:50:53.951Z,971.09
2019-04-26T01:51:53.867Z,971.07
2019-04-26T01:52:53.786Z,971.07
2019-04-26T01:53:53.712Z,971.11
2019-04-26T01:54:53.634Z,971.11
2019-04-26T01:55:53.550Z,971.10
2019-04-26T01:56:53.479Z,971.09
2019-04-26T01:57:53.394Z,971.09
2019-04-26T01:58:53.319Z,971.09
2019-04-26T01:59:53.244Z,971.06
2019-04-26T02:00:53.162Z,971.07
2019-04-26T02:01:53.084Z,971.07
2019-04-26T02:02:53.010Z,971.11
2019-04-26T02:03:52.929Z,971.08
2019-04-26T02:04:52.847Z,971.13
2019-04-26T02:05:52.770Z,971.14
2019-04-26T02:06:52.692Z,971.14
2019-04-26T02:07:52.614Z,971.12
2019-04-26T02:08:52.545Z,971.10
2019-04-26T02:09:52.467Z,971.09
2019-04-26T02:10:52.382Z,971.07
2019-04-26T02:11:52.310Z,971.01
2019-04-26T02:12:52.230Z,971.00
2019-04-26T02:13:52.154Z,970.99
2019-04-26T02:14:52.079Z,970.99
2019-04-26T02:15:51.999Z,970.99
2019-04-26T02:16:51.919Z,970.97
2019-04-26T02:17:51.840Z,970.98
2019-04-26T02:18:51.764Z,970.92
2019-04-26T02:19:51.689Z,970.87
2019-04-26T02:20:51.607Z,970.85
2019-04-26T02:21:51.527Z,970.84
2019-04-26T02:22:51.450Z,970.87
2019-04-26T02:23:51.373Z,970.84
2019-04-26T02:24:51.294Z,970.83
2019-04-26T02:25:51.215Z,970.87
2019-04-26T02:26:51.140Z,970.90
2019-04-26T02:27:51.059Z,970.86
2019-04-26T02:28:50.981Z,970.89
2019-04-26T02:29:50.904Z,970.90
2019-04-26T02:30:50.825Z,970.90
2019-04-26T02:31:50.757Z,970.87
2019-04-26T02:32:50.669Z,970.92
2019-04-26T02:33:50.590Z,970.87
2019-04-26T02:34:50.514Z,970.87
2019-04-26T02:35:50.433Z,970.88
2019-04-26T02:36:57.755Z,970.88
2019-04-26T02:37:50.278Z,970.87
2019-04-26T02:38:50.201Z,970.85
2019-04-26T02:39:50.121Z,970.82
2019-04-26T02:40:50.042Z,970.82
2019-04-26T02:41:49.964Z,970.76
2019-04-26T02:42:49.892Z,970.74
2019-04-26T02:43:49.809Z,970.69
2019-04-26T02:44:49.736Z,970.67
2019-04-26T02:45:49.653Z,970.62
2019-04-26T02:46:58.258Z,970.58
2019-04-26T02:48:53.879Z,970.51
2019-04-26T02:49:53.784Z,970.51
2019-04-26T02:51:58.109Z,970.55
2019-04-26T02:52:58.010Z,970.56
2019-04-26T02:55:03.349Z,970.60
2019-04-26T02:56:03.266Z,970.61
2019-04-26T02:57:56.510Z,970.63
2019-04-26T02:58:56.414Z,970.64
2019-04-26T03:01:00.786Z,970.58
2019-04-26T03:02:00.643Z,970.55
2019-04-26T03:03:00.576Z,970.53
2019-04-26T03:04:00.497Z,970.53
2019-04-26T03:05:00.433Z,970.49
2019-04-26T03:06:00.376Z,970.53
2019-04-26T03:07:03.517Z,970.47
2019-04-26T03:08:00.227Z,970.46
2019-04-26T03:09:00.090Z,970.41
2019-04-26T03:10:00.263Z,970.44
2019-04-26T03:10:59.931Z,970.44
2019-04-26T03:11:59.852Z,970.42
2019-04-26T03:12:59.776Z,970.39
2019-04-26T03:13:59.704Z,970.43
2019-04-26T03:15:13.297Z,970.42
2019-04-26T03:15:59.542Z,970.44
2019-04-26T03:16:59.461Z,970.43
2019-04-26T03:17:59.382Z,970.42
2019-04-26T03:18:59.304Z,970.39
2019-04-26T03:19:59.225Z,970.40
2019-04-26T03:20:59.149Z,970.42
2019-04-26T03:21:59.066Z,970.41
2019-04-26T03:22:58.989Z,970.45
2019-04-26T03:23:59.594Z,970.47
2019-04-26T03:24:58.830Z,970.49
2019-04-26T03:25:58.751Z,970.48
2019-04-26T03:26:58.676Z,970.49
2019-04-26T03:27:58.594Z,970.46
2019-04-26T03:28:58.515Z,970.51
2019-04-26T03:30:18.647Z,970.49
2019-04-26T03:30:58.362Z,970.47
2019-04-26T03:31:58.279Z,970.46
2019-04-26T03:32:58.384Z,970.50
2019-04-26T03:33:58.239Z,970.50
2019-04-26T03:34:58.044Z,970.43
2019-04-26T03:35:58.510Z,970.45
2019-04-26T03:36:57.875Z,970.44
2019-04-26T03:37:57.806Z,970.47
2019-04-26T03:38:57.721Z,970.48
2019-04-26T03:39:57.656Z,970.47
2019-04-26T03:40:57.574Z,970.48
2019-04-26T03:41:57.482Z,970.52
2019-04-26T03:42:57.415Z,970.49
2019-04-26T03:43:57.334Z,970.49
2019-04-26T03:44:57.258Z,970.52
2019-04-26T03:45:57.164Z,970.52
2019-04-26T03:46:57.109Z,970.55
2019-04-26T03:47:57.008Z,970.53
2019-04-26T03:48:56.940Z,970.59
2019-04-26T03:49:56.848Z,970.56
2019-04-26T03:50:56.773Z,970.57
2019-04-26T03:51:56.688Z,970.58
2019-04-26T03:52:56.622Z,970.59
2019-04-26T03:53:56.537Z,970.54
2019-04-26T03:54:56.454Z,970.54
2019-04-26T03:55:56.369Z,970.61
2019-04-26T03:56:56.299Z,970.60
2019-04-26T03:57:56.218Z,970.63
2019-04-26T03:58:56.140Z,970.63
2019-04-26T03:59:56.058Z,970.60
2019-04-26T04:00:55.979Z,970.58
2019-04-26T04:01:55.898Z,970.58
2019-04-26T04:02:55.823Z,970.60
2019-04-26T04:03:55.747Z,970.59
2019-04-26T04:04:55.664Z,970.65
2019-04-26T04:05:55.581Z,970.66
2019-04-26T04:07:03.837Z,970.67
2019-04-26T04:07:55.420Z,970.63
2019-04-26T04:08:55.350Z,970.65
2019-04-26T04:09:55.265Z,970.67
2019-04-26T04:10:55.184Z,970.66
2019-04-26T04:12:10.260Z,970.67
2019-04-26T04:12:55.030Z,970.65
2019-04-26T04:13:55.051Z,970.70
2019-04-26T04:14:55.240Z,970.72
2019-04-26T04:15:54.785Z,970.70
2019-04-26T04:16:54.712Z,970.71
2019-04-26T04:17:54.626Z,970.69
2019-04-26T04:18:54.550Z,970.73
2019-04-26T04:19:54.471Z,970.68
2019-04-26T04:20:54.393Z,970.70
2019-04-26T04:21:54.383Z,970.72
2019-04-26T04:22:54.234Z,970.71
2019-04-26T04:23:54.149Z,970.74
2019-04-26T04:24:54.074Z,970.75
2019-04-26T04:25:53.995Z,970.74
2019-04-26T04:26:53.917Z,970.75
2019-04-26T04:27:53.836Z,970.74
2019-04-26T04:28:53.758Z,970.75
2019-04-26T04:29:55.623Z,970.78
2019-04-26T04:30:53.597Z,970.77
2019-04-26T04:31:53.519Z,970.82
2019-04-26T04:32:53.453Z,970.84
2019-04-26T04:33:53.360Z,970.83
2019-04-26T04:34:53.278Z,970.82
2019-04-26T04:35:53.198Z,970.87
2019-04-26T04:36:53.702Z,970.88
2019-04-26T04:38:07.724Z,970.90
2019-04-26T04:38:55.014Z,970.89
2019-04-26T04:39:53.531Z,970.91
2019-04-26T04:40:53.425Z,970.93
2019-04-26T04:41:53.360Z,970.98
2019-04-26T04:42:52.712Z,970.98
2019-04-26T04:43:53.288Z,971.01
2019-04-26T04:44:52.481Z,970.95
2019-04-26T04:45:53.108Z,970.93
2019-04-26T04:46:53.921Z,970.89
2019-04-26T04:47:54.087Z,970.90
2019-04-26T04:48:52.728Z,970.90
2019-04-26T04:49:52.666Z,970.98
2019-04-26T04:50:52.596Z,971.01
2019-04-26T04:51:51.927Z,971.07
2019-04-26T04:52:52.269Z,971.07
2019-04-26T04:53:51.784Z,971.08
2019-04-26T04:55:06.394Z,971.00
2019-04-26T04:55:52.080Z,970.95
2019-04-26T04:56:51.953Z,970.94
2019-04-26T04:57:52.408Z,971.01
2019-04-26T04:58:52.453Z,971.02
2019-04-26T04:59:52.329Z,971.07
2019-04-26T05:00:51.431Z,971.11
2019-04-26T05:01:51.133Z,971.10
2019-04-26T05:02:51.098Z,971.09
2019-04-26T05:03:51.075Z,971.06
2019-04-26T05:04:51.150Z,971.02
2019-04-26T05:05:51.133Z,971.06
2019-04-26T05:06:51.215Z,971.07
2019-04-26T05:07:51.477Z,971.11
2019-04-26T05:08:51.565Z,971.11
2019-04-26T05:09:51.576Z,971.17
2019-04-26T05:10:50.420Z,971.16
2019-04-26T05:11:50.354Z,971.19
2019-04-26T05:12:50.258Z,971.18
2019-04-26T05:13:50.182Z,971.14
2019-04-26T05:14:50.173Z,971.12
2019-04-26T05:15:50.708Z,971.13
2019-04-26T05:16:50.499Z,971.16
2019-04-26T05:17:49.861Z,971.22
2019-04-26T05:18:50.595Z,971.26
2019-04-26T05:19:50.625Z,971.31
2019-04-26T05:20:49.639Z,971.32
2019-04-26T05:21:49.542Z,971.29
2019-04-26T05:22:49.460Z,971.27
2019-04-26T05:23:49.384Z,971.25
2019-04-26T05:24:49.306Z,971.28
2019-04-26T05:25:49.419Z,971.30
2019-04-26T05:26:49.384Z,971.28
2019-04-26T05:27:49.070Z,971.27
2019-04-26T05:28:49.568Z,971.30
2019-04-26T05:29:49.875Z,971.34
2019-04-26T05:30:49.876Z,971.37
2019-04-26T05:31:50.020Z,971.40
2019-04-26T05:32:48.758Z,971.38
2019-04-26T05:33:48.862Z,971.38
2019-04-26T05:34:49.040Z,971.39
2019-04-26T05:35:49.077Z,971.38
2019-04-26T05:36:48.816Z,971.36
2019-04-26T05:37:49.254Z,971.38
2019-04-26T05:38:49.240Z,971.39
2019-04-26T05:39:49.144Z,971.40
2019-04-26T05:40:48.611Z,971.41
2019-04-26T05:41:48.515Z,971.44
2019-04-26T05:42:48.419Z,971.46
2019-04-26T05:43:49.167Z,971.44
2019-04-26T05:44:48.523Z,971.37
2019-04-26T05:45:47.638Z,971.37
2019-04-26T05:46:47.557Z,971.37
2019-04-26T05:48:01.233Z,971.39
2019-04-26T05:48:47.408Z,971.36
2019-04-26T05:49:47.323Z,971.38
2019-04-26T05:50:47.244Z,971.45
2019-04-26T05:51:47.165Z,971.47
2019-04-26T05:52:47.085Z,971.51
2019-04-26T05:53:47.049Z,971.48
2019-04-26T05:54:46.929Z,971.46
2019-04-26T05:55:46.847Z,971.44
2019-04-26T05:56:46.774Z,971.46
2019-04-26T05:57:46.693Z,971.50
2019-04-26T05:58:46.613Z,971.53
2019-04-26T05:59:46.534Z,971.50
2019-04-26T06:00:46.458Z,971.51
2019-04-26T06:01:46.379Z,971.50
2019-04-26T06:02:46.298Z,971.53
2019-04-26T06:03:46.218Z,971.53
2019-04-26T06:04:46.142Z,971.57
2019-04-26T06:05:46.061Z,971.60
2019-04-26T06:06:45.980Z,971.60
2019-04-26T06:07:45.904Z,971.61
2019-04-26T06:08:45.825Z,971.61
2019-04-26T06:09:45.745Z,971.63
2019-04-26T06:10:45.670Z,971.65
2019-04-26T06:11:45.585Z,971.63
2019-04-26T06:12:45.509Z,971.62
2019-04-26T06:13:45.431Z,971.57
2019-04-26T06:14:45.351Z,971.56
2019-04-26T06:15:45.271Z,971.60
2019-04-26T06:16:45.193Z,971.59
2019-04-26T06:17:45.117Z,971.63
2019-04-26T06:18:45.035Z,971.58
2019-04-26T06:19:44.957Z,971.62
2019-04-26T06:20:44.879Z,971.60
2019-04-26T06:21:44.798Z,971.60
2019-04-26T06:22:44.728Z,971.59
2019-04-26T06:23:44.642Z,971.59
2019-04-26T06:24:44.565Z,971.58
2019-04-26T06:25:44.487Z,971.58
2019-04-26T06:26:44.407Z,971.59
2019-04-26T06:27:44.328Z,971.53
2019-04-26T06:28:44.251Z,971.55
2019-04-26T06:29:44.172Z,971.55
2019-04-26T06:30:45.654Z,971.55
2019-04-26T06:31:44.013Z,971.63
2019-04-26T06:32:56.142Z,971.59
2019-04-26T06:33:43.864Z,971.60
2019-04-26T06:34:43.777Z,971.65
2019-04-26T06:35:43.699Z,971.65
2019-04-26T06:36:43.623Z,971.65
2019-04-26T06:37:43.541Z,971.63
2019-04-26T06:38:44.222Z,971.61
2019-04-26T06:39:43.388Z,971.72
2019-04-26T06:40:43.308Z,971.79
2019-04-26T06:41:43.227Z,971.79
2019-04-26T06:42:43.152Z,971.83
2019-04-26T06:43:43.071Z,971.85
2019-04-26T06:44:42.990Z,971.75
2019-04-26T06:45:42.914Z,971.75
2019-04-26T06:46:42.845Z,971.73
2019-04-26T06:47:42.759Z,971.74
2019-04-26T06:48:42.682Z,971.74
2019-04-26T06:49:42.600Z,971.73
2019-04-26T06:50:42.527Z,971.69
2019-04-26T06:51:42.441Z,971.73
2019-04-26T06:52:42.372Z,971.67
2019-04-26T06:53:42.284Z,971.71
2019-04-26T06:54:42.209Z,971.72
2019-04-26T06:55:42.131Z,971.73
2019-04-26T06:56:42.050Z,971.74
2019-04-26T06:57:41.970Z,971.78
2019-04-26T06:58:41.893Z,971.74
2019-04-26T06:59:41.815Z,971.73
2019-04-26T07:00:41.734Z,971.75
2019-04-26T07:01:41.656Z,971.74
2019-04-26T07:02:41.581Z,971.73
2019-04-26T07:03:41.502Z,971.80
2019-04-26T07:04:41.422Z,971.76
2019-04-26T07:05:41.342Z,971.78
2019-04-26T07:06:41.272Z,971.82
2019-04-26T07:07:41.189Z,971.79
2019-04-26T07:08:41.112Z,971.76
2019-04-26T07:09:41.030Z,971.79
2019-04-26T07:10:40.953Z,971.78
2019-04-26T07:11:40.873Z,971.83
2019-04-26T07:12:40.797Z,971.81
2019-04-26T07:13:40.726Z,971.78
2019-04-26T07:14:40.640Z,971.82
2019-04-26T07:15:40.559Z,971.74
2019-04-26T07:16:40.482Z,971.74
2019-04-26T07:17:40.405Z,971.71
2019-04-26T07:18:40.326Z,971.74
2019-04-26T07:19:40.250Z,971.77
2019-04-26T07:20:40.168Z,971.80
2019-04-26T07:21:40.094Z,971.75
2019-04-26T07:22:40.016Z,971.76
2019-04-26T07:23:39.945Z,971.73
2019-04-26T07:24:39.862Z,971.71
2019-04-26T07:25:39.779Z,971.77
2019-04-26T07:26:39.700Z,971.76
2019-04-26T07:27:39.621Z,971.79
2019-04-26T07:28:39.547Z,971.83
2019-04-26T07:29:39.466Z,971.83
2019-04-26T07:30:39.390Z,971.93
2019-04-26T07:31:39.314Z,971.92
2019-04-26T07:32:39.240Z,971.95
2019-04-26T07:33:39.155Z,971.98
2019-04-26T07:34:39.071Z,971.96
2019-04-26T07:35:38.996Z,972.00
2019-04-26T07:36:38.921Z,972.01
2019-04-26T07:37:38.843Z,972.01
2019-04-26T07:38:38.762Z,971.98
2019-04-26T07:39:38.684Z,972.01
2019-04-26T07:40:38.673Z,971.94
2019-04-26T07:41:38.530Z,971.95
2019-04-26T07:42:38.449Z,971.94
2019-04-26T07:43:38.371Z,971.97
2019-04-26T07:44:38.295Z,972.00
2019-04-26T07:45:38.219Z,972.03
2019-04-26T07:46:38.135Z,972.05
2019-04-26T07:47:38.059Z,972.05
2019-04-26T07:48:37.980Z,972.06
2019-04-26T07:49:37.906Z,972.13
2019-04-26T07:50:37.824Z,972.15
2019-04-26T07:51:37.742Z,972.20
2019-04-26T07:52:37.667Z,972.18
2019-04-26T07:53:37.589Z,972.16
2019-04-26T07:54:37.511Z,972.18
2019-04-26T07:55:37.437Z,972.15
2019-04-26T07:56:37.352Z,972.13
2019-04-26T07:57:37.276Z,972.19
2019-04-26T07:58:37.197Z,972.19
2019-04-26T07:59:37.117Z,972.18
2019-04-26T08:00:44.576Z,972.19
2019-04-26T08:01:36.964Z,972.17
2019-04-26T08:02:36.887Z,972.25
2019-04-26T08:03:36.806Z,972.28
2019-04-26T08:04:36.727Z,972.25
2019-04-26T08:05:36.647Z,972.22
2019-04-26T08:06:36.572Z,972.21
2019-04-26T08:07:36.495Z,972.26
2019-04-26T08:08:36.411Z,972.21
2019-04-26T08:09:36.336Z,972.18
2019-04-26T08:10:36.254Z,972.21
2019-04-26T08:11:36.178Z,972.14
2019-04-26T08:12:36.118Z,972.15
2019-04-26T08:13:36.024Z,972.22
2019-04-26T08:14:35.943Z,972.21
2019-04-26T08:15:35.866Z,972.31
2019-04-26T08:16:35.790Z,972.28
2019-04-26T08:17:35.715Z,972.30
2019-04-26T08:18:35.636Z,972.31
2019-04-26T08:19:35.815Z,972.30
2019-04-26T08:20:35.476Z,972.30
2019-04-26T08:21:35.396Z,972.31
2019-04-26T08:22:35.320Z,972.37
2019-04-26T08:23:41.596Z,972.37
2019-04-26T08:24:35.165Z,972.37
2019-04-26T08:25:35.084Z,972.50
2019-04-26T08:26:35.009Z,972.43
2019-04-26T08:27:34.931Z,972.47
2019-04-26T08:28:34.857Z,972.55
2019-04-26T08:29:34.771Z,972.51
2019-04-26T08:30:34.695Z,972.45
2019-04-26T08:31:34.621Z,972.45
2019-04-26T08:32:34.542Z,972.47
2019-04-26T08:33:34.463Z,972.48
2019-04-26T08:34:34.385Z,972.42
2019-04-26T08:35:34.304Z,972.49
2019-04-26T08:36:34.236Z,972.46
2019-04-26T08:37:36.528Z,972.49
2019-04-26T08:38:34.080Z,972.51
2019-04-26T08:39:45.001Z,972.57
2019-04-26T08:40:33.922Z,972.57
2019-04-26T08:41:35.229Z,972.67
2019-04-26T08:42:33.774Z,972.62
2019-04-26T08:43:33.685Z,972.66
2019-04-26T08:44:34.528Z,972.65
2019-04-26T08:45:33.528Z,972.61
2019-04-26T08:47:40.571Z,972.59
2019-04-26T08:49:39.169Z,972.63
2019-04-26T08:50:37.105Z,972.62
2019-04-26T08:51:37.030Z,972.66
2019-04-26T08:52:36.953Z,972.66
2019-04-26T08:53:36.874Z,972.69
2019-04-26T08:54:36.798Z,972.74
2019-04-26T08:55:36.727Z,972.72
2019-04-26T08:56:36.645Z,972.78
2019-04-26T08:57:36.569Z,972.79
2019-04-26T08:58:36.487Z,972.78
2019-04-26T08:59:36.410Z,972.90
2019-04-26T09:00:36.329Z,972.88
2019-04-26T09:01:36.252Z,972.83
2019-04-26T09:02:36.181Z,972.85
2019-04-26T09:03:36.102Z,972.87
2019-04-26T09:04:36.030Z,972.92
2019-04-26T09:05:35.947Z,972.88
2019-04-26T09:06:35.875Z,972.89
2019-04-26T09:07:36.440Z,972.91
2019-04-26T09:08:39.102Z,972.92
2019-04-26T09:09:35.639Z,972.97
2019-04-26T09:10:35.572Z,973.02
2019-04-26T09:11:35.500Z,973.04
2019-04-26T09:12:35.412Z,973.04
2019-04-26T09:13:35.335Z,973.06
2019-04-26T09:14:35.257Z,973.04
2019-04-26T09:15:35.180Z,973.05
2019-04-26T09:16:35.162Z,973.03
2019-04-26T09:17:35.027Z,973.04
2019-04-26T09:18:42.930Z,973.02
2019-04-26T09:19:34.969Z,973.04
2019-04-26T09:20:38.584Z,972.98
2019-04-26T09:21:34.718Z,973.09
2019-04-26T09:22:34.643Z,973.09
2019-04-26T09:23:40.176Z,973.17
2019-04-26T09:24:34.489Z,973.03
2019-04-26T09:25:39.010Z,973.10
2019-04-26T09:26:34.336Z,973.10
2019-04-26T09:27:34.260Z,973.08
2019-04-26T09:28:34.180Z,973.12
2019-04-26T09:29:34.105Z,973.09
2019-04-26T09:30:34.699Z,973.06
2019-04-26T09:31:33.950Z,973.18
2019-04-26T09:32:33.874Z,973.13
2019-04-26T09:33:36.029Z,973.17
2019-04-26T09:34:33.723Z,973.22
2019-04-26T09:35:33.648Z,973.22
2019-04-26T09:36:33.567Z,973.18
2019-04-26T09:37:33.490Z,973.20
2019-04-26T09:38:33.413Z,973.31
2019-04-26T09:39:33.335Z,973.32
2019-04-26T09:40:33.273Z,973.35
2019-04-26T09:41:33.182Z,973.41
2019-04-26T09:42:33.103Z,973.39
2019-04-26T09:43:33.029Z,973.38
2019-04-26T09:44:32.950Z,973.41
2019-04-26T09:45:32.880Z,973.39
2019-04-26T09:46:32.805Z,973.44
2019-04-26T09:47:32.726Z,973.41
2019-04-26T09:48:32.655Z,973.37
2019-04-26T09:49:32.566Z,973.52
2019-04-26T09:50:32.489Z,973.49
2019-04-26T09:51:34.845Z,973.52
2019-04-26T09:52:32.341Z,973.41
2019-04-26T09:53:32.261Z,973.46
2019-04-26T09:54:32.185Z,973.41
2019-04-26T09:55:35.665Z,973.40
2019-04-26T09:56:32.032Z,973.43
2019-04-26T09:57:31.955Z,973.43
2019-04-26T09:58:32.219Z,973.46
2019-04-26T09:59:31.795Z,973.46
2019-04-26T10:00:31.725Z,973.40
2019-04-26T10:01:31.649Z,973.38
2019-04-26T10:02:33.825Z,973.39
2019-04-26T10:03:34.219Z,973.44
2019-04-26T10:04:31.419Z,973.46
2019-04-26T10:05:31.343Z,973.42
2019-04-26T10:06:31.265Z,973.52
2019-04-26T10:07:33.325Z,973.46
2019-04-26T10:08:31.112Z,973.51
2019-04-26T10:09:31.055Z,973.59
2019-04-26T10:10:35.169Z,973.52
2019-04-26T10:11:30.880Z,973.52
2019-04-26T10:12:30.806Z,973.58
2019-04-26T10:13:30.727Z,973.58
2019-04-26T10:14:30.652Z,973.59
2019-04-26T10:15:30.579Z,973.73
2019-04-26T10:16:33.523Z,973.60
2019-04-26T10:17:30.421Z,973.49
2019-04-26T10:18:30.343Z,973.62
2019-04-26T10:19:31.806Z,973.68
2019-04-26T10:20:30.194Z,973.72
2019-04-26T10:21:30.116Z,973.71
2019-04-26T10:22:30.041Z,973.70
2019-04-26T10:23:29.960Z,973.72
2019-04-26T10:24:29.887Z,973.73
2019-04-26T10:25:29.809Z,973.78
2019-04-26T10:26:29.941Z,973.79
2019-04-26T10:27:32.365Z,973.79
2019-04-26T10:28:29.579Z,973.78
2019-04-26T10:29:29.502Z,973.80
2019-04-26T10:30:29.425Z,973.90
2019-04-26T10:31:29.353Z,973.82
2019-04-26T10:32:29.274Z,973.89
2019-04-26T10:33:32.664Z,973.94
2019-04-26T10:34:29.119Z,973.86
2019-04-26T10:35:29.044Z,973.91
2019-04-26T10:36:30.125Z,973.87
2019-04-26T10:37:38.949Z,973.92
2019-04-26T10:38:28.817Z,973.98
2019-04-26T10:39:32.411Z,974.07
2019-04-26T10:40:35.253Z,973.97
2019-04-26T10:41:28.583Z,974.03
2019-04-26T10:42:28.510Z,973.95
2019-04-26T10:43:29.532Z,973.99
2019-04-26T10:44:28.350Z,973.95
2019-04-26T10:45:28.269Z,973.94
2019-04-26T10:46:29.444Z,973.89
2019-04-26T10:47:28.125Z,973.87
2019-04-26T10:48:28.050Z,973.93
2019-04-26T10:49:27.965Z,973.87
2019-04-26T10:50:28.787Z,973.91
2019-04-26T10:51:27.813Z,973.96
2019-04-26T10:52:27.736Z,974.00
2019-04-26T10:53:30.078Z,974.10
2019-04-26T10:54:27.581Z,974.11
2019-04-26T10:55:27.505Z,974.01
2019-04-26T10:56:27.427Z,973.92
2019-04-26T10:57:27.349Z,973.97
2019-04-26T10:58:27.272Z,973.88
2019-04-26T10:59:27.197Z,974.00
2019-04-26T11:00:27.119Z,973.87
2019-04-26T11:01:27.038Z,973.95
2019-04-26T11:02:26.968Z,973.87
2019-04-26T11:03:26.885Z,973.88
2019-04-26T11:04:26.810Z,973.93
2019-04-26T11:05:26.738Z,974.03
2019-04-26T11:06:27.912Z,974.04
2019-04-26T11:07:26.578Z,974.01
2019-04-26T11:08:26.503Z,973.95
2019-04-26T11:09:26.427Z,973.90
2019-04-26T11:10:26.349Z,973.94
2019-04-26T11:11:26.269Z,973.89
2019-04-26T11:12:26.194Z,973.95
2019-04-26T11:13:26.114Z,973.99
2019-04-26T11:14:26.040Z,973.96
2019-04-26T11:15:29.029Z,974.06
2019-04-26T11:16:25.883Z,974.16
2019-04-26T11:17:25.808Z,974.24
2019-04-26T11:18:27.784Z,974.15
2019-04-26T11:19:25.653Z,974.14
2019-04-26T11:20:25.580Z,974.15
2019-04-26T11:21:25.502Z,974.16
2019-04-26T11:22:29.439Z,974.19
2019-04-26T11:23:25.348Z,974.20
2019-04-26T11:24:25.265Z,974.20
2019-04-26T11:25:28.233Z,974.15
2019-04-26T11:26:25.112Z,974.20
2019-04-26T11:27:25.035Z,974.22
2019-04-26T11:28:24.974Z,974.24
2019-04-26T11:29:28.411Z,974.30
2019-04-26T11:30:24.803Z,974.28
2019-04-26T11:31:27.677Z,974.23
2019-04-26T11:32:24.652Z,974.22
2019-04-26T11:33:24.571Z,974.23
2019-04-26T11:34:25.208Z,974.18
2019-04-26T11:35:24.438Z,974.18
2019-04-26T11:36:24.349Z,974.22
2019-04-26T11:37:24.261Z,974.26
2019-04-26T11:38:26.876Z,974.25
2019-04-26T11:39:24.133Z,974.32
2019-04-26T11:40:24.026Z,974.28
2019-04-26T11:41:24.055Z,974.33
2019-04-26T11:42:23.873Z,974.30
2019-04-26T11:43:23.796Z,974.38
2019-04-26T11:44:27.445Z,974.35
2019-04-26T11:45:23.640Z,974.37
2019-04-26T11:46:29.204Z,974.34
2019-04-26T11:47:23.481Z,974.36
2019-04-26T11:48:25.497Z,974.33
2019-04-26T11:49:23.328Z,974.36
2019-04-26T11:50:23.252Z,974.37
2019-04-26T11:51:23.611Z,974.38
2019-04-26T11:52:23.096Z,974.52
2019-04-26T11:53:23.021Z,974.51
2019-04-26T11:54:22.939Z,974.56
2019-04-26T11:55:25.237Z,974.56
2019-04-26T11:56:22.783Z,974.56
2019-04-26T11:57:22.705Z,974.57
2019-04-26T11:58:23.731Z,974.58
2019-04-26T11:59:22.549Z,974.67
2019-04-26T12:00:22.473Z,974.69
2019-04-26T12:01:22.393Z,974.73
2019-04-26T12:02:22.315Z,974.79
2019-04-26T12:03:24.999Z,974.74
2019-04-26T12:04:22.158Z,974.64
2019-04-26T12:05:22.076Z,974.65
2019-04-26T12:06:22.002Z,974.64
2019-04-26T12:07:21.927Z,974.65
2019-04-26T12:08:21.846Z,974.75
2019-04-26T12:09:21.768Z,974.67
2019-04-26T12:10:21.694Z,974.68
2019-04-26T12:11:31.330Z,974.69
2019-04-26T12:12:21.532Z,974.65
2019-04-26T12:13:25.032Z,974.67
2019-04-26T12:14:21.372Z,974.64
2019-04-26T12:15:30.128Z,974.73
2019-04-26T12:16:21.215Z,974.78
2019-04-26T12:17:21.138Z,974.79
2019-04-26T12:18:21.144Z,974.82
2019-04-26T12:19:20.984Z,974.90
2019-04-26T12:20:22.440Z,974.91
2019-04-26T12:21:20.826Z,974.96
2019-04-26T12:22:20.749Z,974.96
2019-04-26T12:23:21.842Z,974.97
2019-04-26T12:24:20.591Z,975.00
2019-04-26T12:25:20.510Z,975.11
2019-04-26T12:26:21.761Z,975.17
2019-04-26T12:27:20.400Z,975.19
2019-04-26T12:28:20.278Z,975.20
2019-04-26T12:29:20.197Z,975.24
2019-04-26T12:30:24.749Z,975.29
2019-04-26T12:31:20.042Z,975.36
2019-04-26T12:32:19.964Z,975.32
2019-04-26T12:33:19.886Z,975.38
2019-04-26T12:34:19.808Z,975.39
2019-04-26T12:35:19.726Z,975.33
2019-04-26T12:36:19.650Z,975.33
2019-04-26T12:37:20.920Z,975.29
2019-04-26T12:38:19.490Z,975.37
2019-04-26T12:39:19.412Z,975.28
2019-04-26T12:40:19.572Z,975.22
2019-04-26T12:41:25.306Z,975.21